sensor_id;sensor_type;location;lat;lon;timestamp;P1;durP1;ratioP1;P2;durP2;ratioP2
73487;SDS011;61721;42.206;25.320;2023-12-07T00:01:18;24.33;;;10.20;;
73487;SDS011;61721;42.206;25.320;2023-12-07T00:03:45;24.48;;;9.88;;
73487;SDS011;61721;42.206;25.320;2023-12-07T00:06:12;18.48;;;8.75;;
73487;SDS011;61721;42.206;25.320;2023-12-07T00:08:40;21.25;;;9.35;;
73487;SDS011;61721;42.206;25.320;2023-12-07T00:11:15;23.20;;;9.93;;
73487;SDS011;61721;42.206;25.320;2023-12-07T00:13:42;20.90;;;9.18;;
73487;SDS011;61721;42.206;25.320;2023-12-07T00:16:10;22.90;;;9.82;;
73487;SDS011;61721;42.206;25.320;2023-12-07T00:18:37;26.05;;;10.98;;
73487;SDS011;61721;42.206;25.320;2023-12-07T00:21:05;27.40;;;10.05;;
73487;SDS011;61721;42.206;25.320;2023-12-07T00:23:34;20.27;;;9.38;;
73487;SDS011;61721;42.206;25.320;2023-12-07T00:26:01;21.85;;;10.23;;
73487;SDS011;61721;42.206;25.320;2023-12-07T00:28:31;20.55;;;8.75;;
73487;SDS011;61721;42.206;25.320;2023-12-07T00:30:59;21.40;;;9.50;;
73487;SDS011;61721;42.206;25.320;2023-12-07T00:33:27;23.92;;;9.32;;
73487;SDS011;61721;42.206;25.320;2023-12-07T00:35:55;19.58;;;9.32;;
73487;SDS011;61721;42.206;25.320;2023-12-07T00:38:22;29.05;;;9.00;;
73487;SDS011;61721;42.206;25.320;2023-12-07T00:40:50;19.63;;;9.32;;
73487;SDS011;61721;42.206;25.320;2023-12-07T00:43:17;19.45;;;8.95;;
73487;SDS011;61721;42.206;25.320;2023-12-07T00:45:46;18.60;;;9.15;;
73487;SDS011;61721;42.206;25.320;2023-12-07T00:48:13;16.75;;;8.40;;
73487;SDS011;61721;42.206;25.320;2023-12-07T00:50:41;16.98;;;8.50;;
73487;SDS011;61721;42.206;25.320;2023-12-07T00:53:08;16.58;;;8.02;;
73487;SDS011;61721;42.206;25.320;2023-12-07T00:55:38;16.02;;;7.35;;
73487;SDS011;61721;42.206;25.320;2023-12-07T00:58:05;17.40;;;7.53;;
73487;SDS011;61721;42.206;25.320;2023-12-07T01:00:33;17.45;;;7.47;;
73487;SDS011;61721;42.206;25.320;2023-12-07T01:03:02;16.70;;;7.00;;
73487;SDS011;61721;42.206;25.320;2023-12-07T01:05:29;13.15;;;7.88;;
73487;SDS011;61721;42.206;25.320;2023-12-07T01:07:56;12.60;;;6.75;;
73487;SDS011;61721;42.206;25.320;2023-12-07T01:10:24;15.75;;;7.63;;
73487;SDS011;61721;42.206;25.320;2023-12-07T01:12:51;13.90;;;7.22;;
73487;SDS011;61721;42.206;25.320;2023-12-07T01:15:19;14.52;;;6.63;;
73487;SDS011;61721;42.206;25.320;2023-12-07T01:17:47;16.00;;;7.38;;
73487;SDS011;61721;42.206;25.320;2023-12-07T01:20:17;11.80;;;6.53;;
73487;SDS011;61721;42.206;25.320;2023-12-07T01:22:45;14.38;;;7.32;;
73487;SDS011;61721;42.206;25.320;2023-12-07T01:25:12;12.55;;;7.05;;
73487;SDS011;61721;42.206;25.320;2023-12-07T01:27:45;14.90;;;7.22;;
73487;SDS011;61721;42.206;25.320;2023-12-07T01:30:14;16.20;;;7.72;;
73487;SDS011;61721;42.206;25.320;2023-12-07T01:32:41;21.48;;;7.32;;
73487;SDS011;61721;42.206;25.320;2023-12-07T01:35:09;17.55;;;8.13;;
73487;SDS011;61721;42.206;25.320;2023-12-07T01:37:38;21.08;;;7.70;;
73487;SDS011;61721;42.206;25.320;2023-12-07T01:40:06;20.42;;;8.30;;
73487;SDS011;61721;42.206;25.320;2023-12-07T01:42:36;17.13;;;8.00;;
73487;SDS011;61721;42.206;25.320;2023-12-07T01:45:04;21.98;;;9.13;;
73487;SDS011;61721;42.206;25.320;2023-12-07T01:47:32;23.58;;;8.13;;
73487;SDS011;61721;42.206;25.320;2023-12-07T01:50:02;25.67;;;8.40;;
73487;SDS011;61721;42.206;25.320;2023-12-07T01:52:31;19.02;;;8.13;;
73487;SDS011;61721;42.206;25.320;2023-12-07T01:55:02;18.33;;;8.23;;
73487;SDS011;61721;42.206;25.320;2023-12-07T01:57:30;23.52;;;8.00;;
73487;SDS011;61721;42.206;25.320;2023-12-07T01:59:58;29.75;;;8.50;;
73487;SDS011;61721;42.206;25.320;2023-12-07T02:02:25;18.13;;;8.32;;
73487;SDS011;61721;42.206;25.320;2023-12-07T02:04:54;17.23;;;7.82;;
73487;SDS011;61721;42.206;25.320;2023-12-07T02:07:22;30.52;;;7.72;;
73487;SDS011;61721;42.206;25.320;2023-12-07T02:09:50;16.80;;;7.85;;
73487;SDS011;61721;42.206;25.320;2023-12-07T02:12:19;19.27;;;7.38;;
73487;SDS011;61721;42.206;25.320;2023-12-07T02:14:46;17.88;;;7.25;;
73487;SDS011;61721;42.206;25.320;2023-12-07T02:17:14;17.40;;;7.75;;
73487;SDS011;61721;42.206;25.320;2023-12-07T02:19:47;15.32;;;6.55;;
73487;SDS011;61721;42.206;25.320;2023-12-07T02:22:21;14.13;;;6.95;;
73487;SDS011;61721;42.206;25.320;2023-12-07T02:25:06;11.90;;;6.07;;
73487;SDS011;61721;42.206;25.320;2023-12-07T02:27:37;14.77;;;6.82;;
73487;SDS011;61721;42.206;25.320;2023-12-07T02:30:06;14.35;;;7.25;;
73487;SDS011;61721;42.206;25.320;2023-12-07T02:32:34;14.15;;;7.43;;
73487;SDS011;61721;42.206;25.320;2023-12-07T02:35:02;12.80;;;7.05;;
73487;SDS011;61721;42.206;25.320;2023-12-07T02:37:32;16.83;;;7.45;;
73487;SDS011;61721;42.206;25.320;2023-12-07T02:40:05;15.13;;;7.45;;
73487;SDS011;61721;42.206;25.320;2023-12-07T02:42:37;11.60;;;5.68;;
73487;SDS011;61721;42.206;25.320;2023-12-07T02:45:06;10.25;;;6.15;;
73487;SDS011;61721;42.206;25.320;2023-12-07T02:47:34;11.50;;;6.45;;
73487;SDS011;61721;42.206;25.320;2023-12-07T02:50:02;11.40;;;6.30;;
73487;SDS011;61721;42.206;25.320;2023-12-07T02:52:31;11.20;;;5.57;;
73487;SDS011;61721;42.206;25.320;2023-12-07T02:54:58;11.07;;;6.10;;
73487;SDS011;61721;42.206;25.320;2023-12-07T02:57:33;15.10;;;9.48;;
73487;SDS011;61721;42.206;25.320;2023-12-07T03:00:02;14.73;;;8.10;;
73487;SDS011;61721;42.206;25.320;2023-12-07T03:02:33;11.68;;;6.13;;
73487;SDS011;61721;42.206;25.320;2023-12-07T03:05:01;8.32;;;5.03;;
73487;SDS011;61721;42.206;25.320;2023-12-07T03:07:28;8.98;;;5.03;;
73487;SDS011;61721;42.206;25.320;2023-12-07T03:09:56;10.70;;;6.03;;
73487;SDS011;61721;42.206;25.320;2023-12-07T03:12:23;8.18;;;4.97;;
73487;SDS011;61721;42.206;25.320;2023-12-07T03:14:51;11.05;;;6.90;;
73487;SDS011;61721;42.206;25.320;2023-12-07T03:17:20;10.52;;;6.38;;
73487;SDS011;61721;42.206;25.320;2023-12-07T03:19:47;9.60;;;5.85;;
73487;SDS011;61721;42.206;25.320;2023-12-07T03:22:15;10.77;;;5.72;;
73487;SDS011;61721;42.206;25.320;2023-12-07T03:24:45;9.02;;;5.18;;
73487;SDS011;61721;42.206;25.320;2023-12-07T03:27:13;9.82;;;5.43;;
73487;SDS011;61721;42.206;25.320;2023-12-07T03:29:40;8.68;;;4.78;;
73487;SDS011;61721;42.206;25.320;2023-12-07T03:32:08;8.43;;;5.22;;
73487;SDS011;61721;42.206;25.320;2023-12-07T03:34:37;9.23;;;5.85;;
73487;SDS011;61721;42.206;25.320;2023-12-07T03:37:05;9.73;;;5.22;;
73487;SDS011;61721;42.206;25.320;2023-12-07T03:39:32;8.95;;;5.13;;
73487;SDS011;61721;42.206;25.320;2023-12-07T03:42:00;9.70;;;5.07;;
73487;SDS011;61721;42.206;25.320;2023-12-07T03:44:27;8.75;;;4.35;;
73487;SDS011;61721;42.206;25.320;2023-12-07T03:46:54;11.02;;;5.45;;
73487;SDS011;61721;42.206;25.320;2023-12-07T03:49:22;11.75;;;5.10;;
73487;SDS011;61721;42.206;25.320;2023-12-07T03:51:51;8.23;;;4.40;;
73487;SDS011;61721;42.206;25.320;2023-12-07T03:54:18;7.95;;;4.40;;
73487;SDS011;61721;42.206;25.320;2023-12-07T03:56:45;11.70;;;4.65;;
73487;SDS011;61721;42.206;25.320;2023-12-07T03:59:13;8.98;;;4.50;;
73487;SDS011;61721;42.206;25.320;2023-12-07T04:01:40;9.75;;;5.03;;
73487;SDS011;61721;42.206;25.320;2023-12-07T04:04:08;7.38;;;4.32;;
73487;SDS011;61721;42.206;25.320;2023-12-07T04:06:35;10.73;;;5.20;;
73487;SDS011;61721;42.206;25.320;2023-12-07T04:09:06;9.15;;;4.90;;
73487;SDS011;61721;42.206;25.320;2023-12-07T04:11:34;9.40;;;4.90;;
73487;SDS011;61721;42.206;25.320;2023-12-07T04:14:01;8.25;;;4.38;;
73487;SDS011;61721;42.206;25.320;2023-12-07T04:16:29;8.27;;;4.82;;
73487;SDS011;61721;42.206;25.320;2023-12-07T04:18:56;7.70;;;4.22;;
73487;SDS011;61721;42.206;25.320;2023-12-07T04:21:24;8.38;;;4.65;;
73487;SDS011;61721;42.206;25.320;2023-12-07T04:23:51;10.45;;;4.40;;
73487;SDS011;61721;42.206;25.320;2023-12-07T04:26:20;9.80;;;5.38;;
73487;SDS011;61721;42.206;25.320;2023-12-07T04:28:48;10.77;;;5.40;;
73487;SDS011;61721;42.206;25.320;2023-12-07T04:31:15;9.52;;;4.65;;
73487;SDS011;61721;42.206;25.320;2023-12-07T04:33:42;12.70;;;6.22;;
73487;SDS011;61721;42.206;25.320;2023-12-07T04:36:10;10.43;;;6.20;;
73487;SDS011;61721;42.206;25.320;2023-12-07T04:38:37;9.30;;;5.70;;
73487;SDS011;61721;42.206;25.320;2023-12-07T04:41:05;9.52;;;5.80;;
73487;SDS011;61721;42.206;25.320;2023-12-07T04:43:34;9.63;;;6.07;;
73487;SDS011;61721;42.206;25.320;2023-12-07T04:46:01;9.82;;;5.53;;
73487;SDS011;61721;42.206;25.320;2023-12-07T04:48:29;9.98;;;6.22;;
73487;SDS011;61721;42.206;25.320;2023-12-07T04:50:57;12.68;;;6.15;;
73487;SDS011;61721;42.206;25.320;2023-12-07T04:53:24;10.15;;;5.47;;
73487;SDS011;61721;42.206;25.320;2023-12-07T04:55:51;10.57;;;5.55;;
73487;SDS011;61721;42.206;25.320;2023-12-07T04:58:19;10.35;;;5.90;;
73487;SDS011;61721;42.206;25.320;2023-12-07T05:00:48;10.05;;;5.57;;
73487;SDS011;61721;42.206;25.320;2023-12-07T05:03:15;13.82;;;6.80;;
73487;SDS011;61721;42.206;25.320;2023-12-07T05:05:43;11.10;;;6.40;;
73487;SDS011;61721;42.206;25.320;2023-12-07T05:08:10;10.88;;;6.18;;
73487;SDS011;61721;42.206;25.320;2023-12-07T05:10:38;13.68;;;6.68;;
73487;SDS011;61721;42.206;25.320;2023-12-07T05:13:05;16.55;;;7.72;;
73487;SDS011;61721;42.206;25.320;2023-12-07T05:15:32;13.90;;;6.40;;
73487;SDS011;61721;42.206;25.320;2023-12-07T05:18:01;12.98;;;6.63;;
73487;SDS011;61721;42.206;25.320;2023-12-07T05:20:29;12.73;;;7.20;;
73487;SDS011;61721;42.206;25.320;2023-12-07T05:22:57;17.83;;;10.35;;
73487;SDS011;61721;42.206;25.320;2023-12-07T05:25:24;17.52;;;9.65;;
73487;SDS011;61721;42.206;25.320;2023-12-07T05:27:52;18.33;;;7.15;;
73487;SDS011;61721;42.206;25.320;2023-12-07T05:30:19;14.35;;;7.60;;
73487;SDS011;61721;42.206;25.320;2023-12-07T05:32:47;12.27;;;6.80;;
73487;SDS011;61721;42.206;25.320;2023-12-07T05:35:17;14.65;;;7.30;;
73487;SDS011;61721;42.206;25.320;2023-12-07T05:37:45;18.10;;;9.07;;
73487;SDS011;61721;42.206;25.320;2023-12-07T05:40:13;17.90;;;9.25;;
73487;SDS011;61721;42.206;25.320;2023-12-07T05:42:41;19.55;;;10.48;;
73487;SDS011;61721;42.206;25.320;2023-12-07T05:45:09;15.65;;;9.15;;
73487;SDS011;61721;42.206;25.320;2023-12-07T05:47:36;20.08;;;9.60;;
73487;SDS011;61721;42.206;25.320;2023-12-07T05:50:04;15.30;;;8.18;;
73487;SDS011;61721;42.206;25.320;2023-12-07T05:52:34;15.73;;;8.88;;
73487;SDS011;61721;42.206;25.320;2023-12-07T05:55:02;17.33;;;8.98;;
73487;SDS011;61721;42.206;25.320;2023-12-07T05:57:30;15.70;;;9.63;;
73487;SDS011;61721;42.206;25.320;2023-12-07T05:59:58;15.27;;;8.45;;
73487;SDS011;61721;42.206;25.320;2023-12-07T06:02:25;19.33;;;9.65;;
73487;SDS011;61721;42.206;25.320;2023-12-07T06:04:53;17.77;;;10.23;;
73487;SDS011;61721;42.206;25.320;2023-12-07T06:07:20;21.77;;;11.20;;
73487;SDS011;61721;42.206;25.320;2023-12-07T06:09:49;19.90;;;12.77;;
73487;SDS011;61721;42.206;25.320;2023-12-07T06:12:17;24.15;;;12.98;;
73487;SDS011;61721;42.206;25.320;2023-12-07T06:14:44;53.72;;;22.83;;
73487;SDS011;61721;42.206;25.320;2023-12-07T06:17:12;51.42;;;24.23;;
73487;SDS011;61721;42.206;25.320;2023-12-07T06:19:39;34.75;;;16.50;;
73487;SDS011;61721;42.206;25.320;2023-12-07T06:22:08;36.17;;;18.38;;
73487;SDS011;61721;42.206;25.320;2023-12-07T06:24:36;42.05;;;20.52;;
73487;SDS011;61721;42.206;25.320;2023-12-07T06:27:05;35.92;;;19.25;;
73487;SDS011;61721;42.206;25.320;2023-12-07T06:29:32;49.38;;;24.38;;
73487;SDS011;61721;42.206;25.320;2023-12-07T06:31:59;36.33;;;18.63;;
73487;SDS011;61721;42.206;25.320;2023-12-07T06:34:27;29.55;;;16.58;;
73487;SDS011;61721;42.206;25.320;2023-12-07T06:36:54;20.15;;;11.40;;
73487;SDS011;61721;42.206;25.320;2023-12-07T06:39:23;15.88;;;8.82;;
73487;SDS011;61721;42.206;25.320;2023-12-07T06:41:51;16.35;;;7.47;;
73487;SDS011;61721;42.206;25.320;2023-12-07T06:44:20;13.68;;;7.07;;
73487;SDS011;61721;42.206;25.320;2023-12-07T06:46:48;11.40;;;6.18;;
73487;SDS011;61721;42.206;25.320;2023-12-07T06:49:15;8.98;;;4.38;;
73487;SDS011;61721;42.206;25.320;2023-12-07T06:51:42;8.27;;;4.32;;
73487;SDS011;61721;42.206;25.320;2023-12-07T06:54:10;10.88;;;4.97;;
73487;SDS011;61721;42.206;25.320;2023-12-07T06:56:37;9.55;;;5.60;;
73487;SDS011;61721;42.206;25.320;2023-12-07T06:59:05;9.65;;;6.00;;
73487;SDS011;61721;42.206;25.320;2023-12-07T07:01:34;10.32;;;5.28;;
73487;SDS011;61721;42.206;25.320;2023-12-07T07:04:01;7.82;;;4.80;;
73487;SDS011;61721;42.206;25.320;2023-12-07T07:06:29;8.13;;;4.65;;
73487;SDS011;61721;42.206;25.320;2023-12-07T07:08:56;12.77;;;6.13;;
73487;SDS011;61721;42.206;25.320;2023-12-07T07:11:25;12.38;;;6.35;;
73487;SDS011;61721;42.206;25.320;2023-12-07T07:13:54;15.30;;;6.90;;
73487;SDS011;61721;42.206;25.320;2023-12-07T07:16:21;14.48;;;6.57;;
73487;SDS011;61721;42.206;25.320;2023-12-07T07:18:50;11.25;;;5.32;;
73487;SDS011;61721;42.206;25.320;2023-12-07T07:21:17;8.95;;;4.85;;
73487;SDS011;61721;42.206;25.320;2023-12-07T07:23:46;9.75;;;4.97;;
73487;SDS011;61721;42.206;25.320;2023-12-07T07:26:14;23.05;;;7.90;;
73487;SDS011;61721;42.206;25.320;2023-12-07T07:28:42;13.23;;;6.35;;
73487;SDS011;61721;42.206;25.320;2023-12-07T07:31:10;12.52;;;6.32;;
73487;SDS011;61721;42.206;25.320;2023-12-07T07:33:37;9.25;;;4.95;;
73487;SDS011;61721;42.206;25.320;2023-12-07T07:36:07;7.15;;;3.88;;
73487;SDS011;61721;42.206;25.320;2023-12-07T07:38:34;9.80;;;4.97;;
73487;SDS011;61721;42.206;25.320;2023-12-07T07:41:02;14.55;;;9.23;;
73487;SDS011;61721;42.206;25.320;2023-12-07T07:43:30;17.42;;;10.20;;
73487;SDS011;61721;42.206;25.320;2023-12-07T07:45:59;12.70;;;8.38;;
73487;SDS011;61721;42.206;25.320;2023-12-07T07:48:27;11.23;;;7.03;;
73487;SDS011;61721;42.206;25.320;2023-12-07T07:50:54;10.55;;;6.53;;
73487;SDS011;61721;42.206;25.320;2023-12-07T07:53:23;12.00;;;5.35;;
73487;SDS011;61721;42.206;25.320;2023-12-07T07:55:51;12.23;;;6.32;;
73487;SDS011;61721;42.206;25.320;2023-12-07T07:58:18;12.02;;;6.05;;
73487;SDS011;61721;42.206;25.320;2023-12-07T08:00:47;11.20;;;6.25;;
73487;SDS011;61721;42.206;25.320;2023-12-07T08:03:14;9.82;;;5.50;;
73487;SDS011;61721;42.206;25.320;2023-12-07T08:05:42;12.75;;;6.82;;
73487;SDS011;61721;42.206;25.320;2023-12-07T08:08:09;15.75;;;7.78;;
73487;SDS011;61721;42.206;25.320;2023-12-07T08:10:39;14.98;;;8.65;;
73487;SDS011;61721;42.206;25.320;2023-12-07T08:13:07;39.78;;;15.10;;
73487;SDS011;61721;42.206;25.320;2023-12-07T08:15:34;12.43;;;5.65;;
73487;SDS011;61721;42.206;25.320;2023-12-07T08:18:02;7.70;;;4.53;;
73487;SDS011;61721;42.206;25.320;2023-12-07T08:20:29;7.35;;;4.32;;
73487;SDS011;61721;42.206;25.320;2023-12-07T08:22:57;7.15;;;4.05;;
73487;SDS011;61721;42.206;25.320;2023-12-07T08:25:24;10.27;;;3.88;;
73487;SDS011;61721;42.206;25.320;2023-12-07T08:27:53;7.80;;;4.07;;
73487;SDS011;61721;42.206;25.320;2023-12-07T08:30:21;8.02;;;4.10;;
73487;SDS011;61721;42.206;25.320;2023-12-07T08:32:48;8.90;;;5.32;;
73487;SDS011;61721;42.206;25.320;2023-12-07T08:35:15;9.25;;;5.05;;
73487;SDS011;61721;42.206;25.320;2023-12-07T08:37:43;9.65;;;5.75;;
73487;SDS011;61721;42.206;25.320;2023-12-07T08:40:11;8.07;;;4.63;;
73487;SDS011;61721;42.206;25.320;2023-12-07T08:42:40;9.32;;;6.35;;
73487;SDS011;61721;42.206;25.320;2023-12-07T08:45:11;15.20;;;7.97;;
73487;SDS011;61721;42.206;25.320;2023-12-07T08:47:40;28.67;;;15.15;;
73487;SDS011;61721;42.206;25.320;2023-12-07T08:50:08;24.35;;;12.20;;
73487;SDS011;61721;42.206;25.320;2023-12-07T08:52:36;20.67;;;11.73;;
73487;SDS011;61721;42.206;25.320;2023-12-07T08:55:04;16.95;;;9.48;;
73487;SDS011;61721;42.206;25.320;2023-12-07T08:57:31;13.20;;;8.30;;
73487;SDS011;61721;42.206;25.320;2023-12-07T08:59:59;14.27;;;7.90;;
73487;SDS011;61721;42.206;25.320;2023-12-07T09:02:27;16.65;;;9.65;;
73487;SDS011;61721;42.206;25.320;2023-12-07T09:04:55;17.60;;;10.40;;
73487;SDS011;61721;42.206;25.320;2023-12-07T09:07:22;16.20;;;8.55;;
73487;SDS011;61721;42.206;25.320;2023-12-07T09:09:50;20.25;;;11.43;;
73487;SDS011;61721;42.206;25.320;2023-12-07T09:12:17;14.00;;;7.78;;
73487;SDS011;61721;42.206;25.320;2023-12-07T09:18:00;21.42;;;10.80;;
73487;SDS011;61721;42.206;25.320;2023-12-07T09:20:28;22.70;;;12.57;;
73487;SDS011;61721;42.206;25.320;2023-12-07T09:22:56;15.77;;;8.75;;
73487;SDS011;61721;42.206;25.320;2023-12-07T09:25:23;14.18;;;6.93;;
73487;SDS011;61721;42.206;25.320;2023-12-07T09:27:53;15.10;;;8.00;;
73487;SDS011;61721;42.206;25.320;2023-12-07T09:30:20;12.70;;;7.63;;
73487;SDS011;61721;42.206;25.320;2023-12-07T09:32:48;12.82;;;6.75;;
73487;SDS011;61721;42.206;25.320;2023-12-07T09:35:17;24.17;;;10.40;;
73487;SDS011;61721;42.206;25.320;2023-12-07T09:40:16;19.58;;;10.07;;
73487;SDS011;61721;42.206;25.320;2023-12-07T09:42:45;18.67;;;9.48;;
73487;SDS011;61721;42.206;25.320;2023-12-07T09:45:14;18.00;;;10.63;;
73487;SDS011;61721;42.206;25.320;2023-12-07T09:47:44;10.77;;;6.10;;
73487;SDS011;61721;42.206;25.320;2023-12-07T09:50:16;12.15;;;6.65;;
73487;SDS011;61721;42.206;25.320;2023-12-07T09:52:47;17.05;;;8.48;;
73487;SDS011;61721;42.206;25.320;2023-12-07T09:55:16;20.65;;;9.57;;
73487;SDS011;61721;42.206;25.320;2023-12-07T09:57:44;25.50;;;11.20;;
73487;SDS011;61721;42.206;25.320;2023-12-07T10:00:12;52.28;;;19.17;;
73487;SDS011;61721;42.206;25.320;2023-12-07T10:02:41;23.42;;;10.75;;
73487;SDS011;61721;42.206;25.320;2023-12-07T10:05:09;16.23;;;8.60;;
73487;SDS011;61721;42.206;25.320;2023-12-07T10:07:40;10.50;;;6.65;;
73487;SDS011;61721;42.206;25.320;2023-12-07T10:10:09;19.90;;;8.50;;
73487;SDS011;61721;42.206;25.320;2023-12-07T10:12:44;15.48;;;8.00;;
73487;SDS011;61721;42.206;25.320;2023-12-07T10:15:14;16.83;;;8.93;;
73487;SDS011;61721;42.206;25.320;2023-12-07T10:17:44;27.58;;;12.05;;
73487;SDS011;61721;42.206;25.320;2023-12-07T10:20:14;14.07;;;8.00;;
73487;SDS011;61721;42.206;25.320;2023-12-07T10:22:44;15.00;;;8.70;;
73487;SDS011;61721;42.206;25.320;2023-12-07T10:25:12;16.75;;;8.65;;
73487;SDS011;61721;42.206;25.320;2023-12-07T10:27:41;12.50;;;7.70;;
73487;SDS011;61721;42.206;25.320;2023-12-07T10:30:09;13.05;;;7.70;;
73487;SDS011;61721;42.206;25.320;2023-12-07T10:32:38;12.93;;;7.00;;
73487;SDS011;61721;42.206;25.320;2023-12-07T10:35:07;11.65;;;6.63;;
73487;SDS011;61721;42.206;25.320;2023-12-07T10:37:35;14.40;;;7.93;;
73487;SDS011;61721;42.206;25.320;2023-12-07T10:40:06;12.27;;;6.53;;
73487;SDS011;61721;42.206;25.320;2023-12-07T10:42:36;12.50;;;7.40;;
73487;SDS011;61721;42.206;25.320;2023-12-07T10:45:07;12.73;;;6.72;;
73487;SDS011;61721;42.206;25.320;2023-12-07T10:47:38;12.43;;;6.70;;
73487;SDS011;61721;42.206;25.320;2023-12-07T10:50:06;11.43;;;6.60;;
73487;SDS011;61721;42.206;25.320;2023-12-07T10:52:43;9.90;;;5.97;;
73487;SDS011;61721;42.206;25.320;2023-12-07T10:55:15;11.65;;;6.35;;
73487;SDS011;61721;42.206;25.320;2023-12-07T10:57:45;11.43;;;5.63;;
73487;SDS011;61721;42.206;25.320;2023-12-07T11:00:14;13.63;;;6.82;;
73487;SDS011;61721;42.206;25.320;2023-12-07T11:02:42;12.98;;;6.72;;
73487;SDS011;61721;42.206;25.320;2023-12-07T11:05:11;14.73;;;7.72;;
73487;SDS011;61721;42.206;25.320;2023-12-07T11:07:42;17.35;;;7.57;;
73487;SDS011;61721;42.206;25.320;2023-12-07T11:10:20;10.85;;;6.43;;
73487;SDS011;61721;42.206;25.320;2023-12-07T11:15:27;12.27;;;6.47;;
73487;SDS011;61721;42.206;25.320;2023-12-07T11:17:55;10.13;;;6.20;;
73487;SDS011;61721;42.206;25.320;2023-12-07T11:20:31;13.77;;;7.10;;
73487;SDS011;61721;42.206;25.320;2023-12-07T11:23:06;13.70;;;5.95;;
73487;SDS011;61721;42.206;25.320;2023-12-07T11:25:36;10.57;;;6.32;;
73487;SDS011;61721;42.206;25.320;2023-12-07T11:28:05;9.02;;;5.20;;
73487;SDS011;61721;42.206;25.320;2023-12-07T11:30:35;9.25;;;5.15;;
73487;SDS011;61721;42.206;25.320;2023-12-07T11:33:03;8.20;;;5.30;;
73487;SDS011;61721;42.206;25.320;2023-12-07T11:35:32;9.18;;;5.57;;
73487;SDS011;61721;42.206;25.320;2023-12-07T11:38:04;10.93;;;5.97;;
73487;SDS011;61721;42.206;25.320;2023-12-07T11:40:37;9.95;;;6.20;;
73487;SDS011;61721;42.206;25.320;2023-12-07T11:43:07;10.55;;;6.15;;
73487;SDS011;61721;42.206;25.320;2023-12-07T11:45:41;9.07;;;5.70;;
73487;SDS011;61721;42.206;25.320;2023-12-07T11:48:14;10.27;;;5.78;;
73487;SDS011;61721;42.206;25.320;2023-12-07T11:53:30;8.02;;;4.90;;
73487;SDS011;61721;42.206;25.320;2023-12-07T11:56:01;8.25;;;5.00;;
73487;SDS011;61721;42.206;25.320;2023-12-07T11:58:31;11.13;;;6.15;;
73487;SDS011;61721;42.206;25.320;2023-12-07T12:03:34;11.82;;;6.47;;
73487;SDS011;61721;42.206;25.320;2023-12-07T12:06:03;10.07;;;5.50;;
73487;SDS011;61721;42.206;25.320;2023-12-07T12:08:34;9.45;;;5.78;;
73487;SDS011;61721;42.206;25.320;2023-12-07T12:11:03;10.23;;;5.72;;
73487;SDS011;61721;42.206;25.320;2023-12-07T12:13:33;10.13;;;6.07;;
73487;SDS011;61721;42.206;25.320;2023-12-07T12:16:01;10.50;;;6.63;;
73487;SDS011;61721;42.206;25.320;2023-12-07T12:18:36;10.90;;;6.88;;
73487;SDS011;61721;42.206;25.320;2023-12-07T12:21:06;9.23;;;5.82;;
73487;SDS011;61721;42.206;25.320;2023-12-07T12:23:34;11.32;;;6.72;;
73487;SDS011;61721;42.206;25.320;2023-12-07T12:26:03;10.90;;;5.55;;
73487;SDS011;61721;42.206;25.320;2023-12-07T12:28:32;9.60;;;5.97;;
73487;SDS011;61721;42.206;25.320;2023-12-07T12:31:03;11.93;;;6.15;;
73487;SDS011;61721;42.206;25.320;2023-12-07T12:33:31;11.52;;;6.32;;
73487;SDS011;61721;42.206;25.320;2023-12-07T12:36:01;11.07;;;6.30;;
73487;SDS011;61721;42.206;25.320;2023-12-07T12:38:32;9.30;;;5.32;;
73487;SDS011;61721;42.206;25.320;2023-12-07T12:40:59;9.00;;;5.55;;
73487;SDS011;61721;42.206;25.320;2023-12-07T12:43:30;11.88;;;6.00;;
73487;SDS011;61721;42.206;25.320;2023-12-07T12:45:59;12.18;;;6.25;;
73487;SDS011;61721;42.206;25.320;2023-12-07T12:48:27;9.93;;;5.70;;
73487;SDS011;61721;42.206;25.320;2023-12-07T12:50:55;8.07;;;4.53;;
73487;SDS011;61721;42.206;25.320;2023-12-07T12:53:22;7.65;;;4.60;;
73487;SDS011;61721;42.206;25.320;2023-12-07T12:55:50;8.15;;;5.20;;
73487;SDS011;61721;42.206;25.320;2023-12-07T12:58:18;8.75;;;5.07;;
73487;SDS011;61721;42.206;25.320;2023-12-07T13:03:16;7.95;;;4.20;;
73487;SDS011;61721;42.206;25.320;2023-12-07T13:05:43;7.78;;;4.20;;
73487;SDS011;61721;42.206;25.320;2023-12-07T13:08:13;8.65;;;4.90;;
73487;SDS011;61721;42.206;25.320;2023-12-07T13:10:40;7.68;;;4.40;;
73487;SDS011;61721;42.206;25.320;2023-12-07T13:13:08;28.23;;;11.80;;
73487;SDS011;61721;42.206;25.320;2023-12-07T13:15:35;10.50;;;6.00;;
73487;SDS011;61721;42.206;25.320;2023-12-07T13:18:04;8.25;;;4.47;;
73487;SDS011;61721;42.206;25.320;2023-12-07T13:20:39;8.73;;;4.95;;
73487;SDS011;61721;42.206;25.320;2023-12-07T13:23:07;8.13;;;4.65;;
73487;SDS011;61721;42.206;25.320;2023-12-07T13:25:35;12.80;;;5.80;;
73487;SDS011;61721;42.206;25.320;2023-12-07T13:28:02;11.18;;;5.35;;
73487;SDS011;61721;42.206;25.320;2023-12-07T13:30:30;25.58;;;9.68;;
73487;SDS011;61721;42.206;25.320;2023-12-07T13:33:00;19.77;;;8.15;;
73487;SDS011;61721;42.206;25.320;2023-12-07T13:35:30;31.77;;;10.95;;
73487;SDS011;61721;42.206;25.320;2023-12-07T13:37:58;12.50;;;6.70;;
73487;SDS011;61721;42.206;25.320;2023-12-07T13:40:25;17.13;;;7.45;;
73487;SDS011;61721;42.206;25.320;2023-12-07T13:42:53;11.95;;;7.57;;
73487;SDS011;61721;42.206;25.320;2023-12-07T13:45:21;14.98;;;7.72;;
73487;SDS011;61721;42.206;25.320;2023-12-07T13:47:48;14.23;;;7.53;;
73487;SDS011;61721;42.206;25.320;2023-12-07T13:50:15;16.00;;;7.75;;
73487;SDS011;61721;42.206;25.320;2023-12-07T13:52:44;14.82;;;7.97;;
73487;SDS011;61721;42.206;25.320;2023-12-07T13:55:12;12.27;;;7.57;;
73487;SDS011;61721;42.206;25.320;2023-12-07T13:57:39;15.60;;;6.90;;
73487;SDS011;61721;42.206;25.320;2023-12-07T14:00:07;11.55;;;6.75;;
73487;SDS011;61721;42.206;25.320;2023-12-07T14:02:38;10.70;;;6.82;;
73487;SDS011;61721;42.206;25.320;2023-12-07T14:05:07;11.63;;;6.00;;
73487;SDS011;61721;42.206;25.320;2023-12-07T14:07:35;10.90;;;6.20;;
73487;SDS011;61721;42.206;25.320;2023-12-07T14:10:04;11.82;;;7.18;;
73487;SDS011;61721;42.206;25.320;2023-12-07T14:12:33;11.13;;;6.72;;
73487;SDS011;61721;42.206;25.320;2023-12-07T14:15:00;12.75;;;7.97;;
73487;SDS011;61721;42.206;25.320;2023-12-07T14:17:28;12.52;;;7.55;;
73487;SDS011;61721;42.206;25.320;2023-12-07T14:20:02;16.27;;;8.82;;
73487;SDS011;61721;42.206;25.320;2023-12-07T14:22:30;15.13;;;8.85;;
73487;SDS011;61721;42.206;25.320;2023-12-07T14:24:57;10.80;;;6.57;;
73487;SDS011;61721;42.206;25.320;2023-12-07T14:27:27;14.38;;;8.48;;
73487;SDS011;61721;42.206;25.320;2023-12-07T14:29:55;12.25;;;7.00;;
73487;SDS011;61721;42.206;25.320;2023-12-07T14:32:22;15.80;;;9.05;;
73487;SDS011;61721;42.206;25.320;2023-12-07T14:34:49;15.50;;;8.73;;
73487;SDS011;61721;42.206;25.320;2023-12-07T14:37:17;17.20;;;10.50;;
73487;SDS011;61721;42.206;25.320;2023-12-07T14:39:45;15.75;;;9.07;;
73487;SDS011;61721;42.206;25.320;2023-12-07T14:42:16;14.63;;;7.80;;
73487;SDS011;61721;42.206;25.320;2023-12-07T14:44:44;12.07;;;6.97;;
73487;SDS011;61721;42.206;25.320;2023-12-07T14:47:13;12.55;;;6.50;;